Huvudsida
METAR-TAF:

METAR-TAF

Flygplatser :

Arvidsjaur, Sverige

Arvidsjaur flygplats

latitud: 65-35-25N, longitud: 019-16-55E, höjd: 379 m

Aktuellt väderrapport

Denna rapport gjordes för 32 minuter sedan, klockan 02:50 UTC
Vind 2 kt från väst/nordväst
Temperatur -15°C
Fuktighet 85%
Tryck 1000 hPa
Sikt: 1100 m
lätt snö

METAR: ESNX 190250Z AUTO 30002KT 1100 R30/P2000N -SN FEW005/// BKN032/// OVC043/// M15/M17 Q1000

Tid: 04:22 (03:22 UTC)

Väderprognos

Denna rapport gjordes för 9 timmar och 41 minuter sedan, klockan 17:41 UTC
Prognos gäller från 18 kl. 18 UTC till 18 kl. 21 UTC
Vind 2 kt från nordväst
Sikt: 5000 m
Spridda moln på en höjd av 1000 ft
Mulet på en höjd av 2500 ft
lätt snö
Sannolikhet 40%
från 18 kl. 18 UTC till 18 kl. 21 UTC
Sikt: 1200 m
Brutna moln på en höjd av 900 ft
snö

TAF: ESNX 181741Z 1818/1821 32002KT 5000 -SN SCT010 OVC025 PROB40 1818/1821 1200 SN BKN009

Aktuella väderrapporter och prognoser från 4000 flygplatser (METAR- och TAF-rapporter).

De tillgängliga stationerna syns som gula och röda prickar på kartan.

För musen över prickarna för att se namnen på stationerna.

Klicka sedan för att få väderrapporter och prognoser.

För att ändra kartan: Klicka på de gröna knapparna med ett svart kors på för att zooma in; den gröna knappen med ett streck på för att zooma ut; eller på de gröna pilarna för angränsande kartor.


METAR-TAF: